Terminal Aerodrome Forecast
Issued by NWS

Home | Current Version | Previous Version | Text Only | Print | Product List | Glossary On
Versions: 1 2 3 4 5 6 7 8 9 10 11 12 13 14 15 16 17 18 19
000
FTUS46 KEKA 282333
TAFCEC
TAF
KCEC 282333Z 2900/2924 19014KT 6SM -SHRA BR FEW007 SCT025 BKN050
     FM290700 16020G28KT 4SM -RA BR SCT010 BKN025 OVC050
     FM291100 33012KT 4SM SHRA BKN010 BKN020 OVC040
     FM291700 33013KT P6SM -SHRA FEW009 SCT015 BKN035=

USA.gov is the U.S. government's official web portal to all federal, state and local government web resources and services.